Terminal Aerodrome Forecast
Issued by NWS Detroit/Pontiac, MI

Home | Current Version | Previous Version | Text Only | Print | Product List | Glossary On
Versions: 1 2 3 4 5 6 7 8 9 10 11 12 13 14 15 16 17 18 19 20 21 22 23 24 25 26 27 28 29
000
FTUS43 KDTX 240523
TAFFNT
TAF
KFNT 240523Z 2406/2506 30010KT P6SM SCT018 OVC025
     FM241400 28010KT P6SM BKN025 OVC035
     FM241900 26012KT P6SM OVC025
     FM242300 25012G18KT P6SM OVC022 PROB30 2423/2503 5SM -SHSN BR
      OVC018=

USA.gov is the U.S. government's official web portal to all federal, state and local government web resources and services.